sensor_id;sensor_type;location;lat;lon;timestamp;P1;durP1;ratioP1;P2;durP2;ratioP2
24663;SDS011;12791;50.992;13.788;2023-04-25T00:00:32;1.75;;;1.55;;
24663;SDS011;12791;50.992;13.788;2023-04-25T00:02:58;2.33;;;2.13;;
24663;SDS011;12791;50.992;13.788;2023-04-25T00:05:25;2.33;;;1.90;;
24663;SDS011;12791;50.992;13.788;2023-04-25T00:07:53;1.88;;;1.77;;
24663;SDS011;12791;50.992;13.788;2023-04-25T00:10:20;2.08;;;1.98;;
24663;SDS011;12791;50.992;13.788;2023-04-25T00:12:46;2.08;;;1.98;;
24663;SDS011;12791;50.992;13.788;2023-04-25T00:15:13;2.15;;;2.03;;
24663;SDS011;12791;50.992;13.788;2023-04-25T00:17:41;2.85;;;2.03;;
24663;SDS011;12791;50.992;13.788;2023-04-25T00:20:07;2.75;;;2.55;;
24663;SDS011;12791;50.992;13.788;2023-04-25T00:22:35;2.55;;;2.20;;
24663;SDS011;12791;50.992;13.788;2023-04-25T00:25:04;2.97;;;2.50;;
24663;SDS011;12791;50.992;13.788;2023-04-25T00:27:31;3.25;;;2.47;;
24663;SDS011;12791;50.992;13.788;2023-04-25T00:29:58;2.83;;;2.40;;
24663;SDS011;12791;50.992;13.788;2023-04-25T00:32:25;3.60;;;2.70;;
24663;SDS011;12791;50.992;13.788;2023-04-25T00:34:51;3.05;;;2.75;;
24663;SDS011;12791;50.992;13.788;2023-04-25T00:37:18;2.78;;;2.58;;
24663;SDS011;12791;50.992;13.788;2023-04-25T00:39:45;2.53;;;2.35;;
24663;SDS011;12791;50.992;13.788;2023-04-25T00:42:13;2.53;;;2.30;;
24663;SDS011;12791;50.992;13.788;2023-04-25T00:44:39;2.47;;;2.28;;
24663;SDS011;12791;50.992;13.788;2023-04-25T00:47:08;2.65;;;2.45;;
24663;SDS011;12791;50.992;13.788;2023-04-25T00:49:34;3.50;;;3.20;;
24663;SDS011;12791;50.992;13.788;2023-04-25T00:52:01;3.15;;;2.63;;
24663;SDS011;12791;50.992;13.788;2023-04-25T00:54:27;2.97;;;2.78;;
24663;SDS011;12791;50.992;13.788;2023-04-25T00:56:55;3.50;;;2.85;;
24663;SDS011;12791;50.992;13.788;2023-04-25T00:59:24;3.13;;;2.83;;
24663;SDS011;12791;50.992;13.788;2023-04-25T01:01:52;2.70;;;2.50;;
24663;SDS011;12791;50.992;13.788;2023-04-25T01:04:18;3.05;;;2.78;;
24663;SDS011;12791;50.992;13.788;2023-04-25T01:06:46;2.85;;;2.60;;
24663;SDS011;12791;50.992;13.788;2023-04-25T01:09:13;4.07;;;3.20;;
24663;SDS011;12791;50.992;13.788;2023-04-25T01:11:40;3.42;;;3.22;;
24663;SDS011;12791;50.992;13.788;2023-04-25T01:14:07;3.45;;;3.15;;
24663;SDS011;12791;50.992;13.788;2023-04-25T01:16:35;3.95;;;3.58;;
24663;SDS011;12791;50.992;13.788;2023-04-25T01:19:03;6.97;;;3.83;;
24663;SDS011;12791;50.992;13.788;2023-04-25T01:21:36;3.70;;;3.40;;
24663;SDS011;12791;50.992;13.788;2023-04-25T01:24:02;4.13;;;3.67;;
24663;SDS011;12791;50.992;13.788;2023-04-25T01:26:30;4.40;;;4.00;;
24663;SDS011;12791;50.992;13.788;2023-04-25T01:28:57;4.32;;;3.92;;
24663;SDS011;12791;50.992;13.788;2023-04-25T01:31:24;3.53;;;3.15;;
24663;SDS011;12791;50.992;13.788;2023-04-25T01:33:52;4.28;;;3.88;;
24663;SDS011;12791;50.992;13.788;2023-04-25T01:36:18;3.20;;;3.00;;
24663;SDS011;12791;50.992;13.788;2023-04-25T01:38:47;4.47;;;3.65;;
24663;SDS011;12791;50.992;13.788;2023-04-25T01:41:14;4.15;;;3.28;;
24663;SDS011;12791;50.992;13.788;2023-04-25T01:43:42;4.28;;;3.88;;
24663;SDS011;12791;50.992;13.788;2023-04-25T01:46:08;3.80;;;3.15;;
24663;SDS011;12791;50.992;13.788;2023-04-25T01:48:36;4.75;;;3.95;;
24663;SDS011;12791;50.992;13.788;2023-04-25T01:51:03;3.75;;;3.25;;
24663;SDS011;12791;50.992;13.788;2023-04-25T01:53:30;3.35;;;3.05;;
24663;SDS011;12791;50.992;13.788;2023-04-25T01:55:58;3.40;;;3.15;;
24663;SDS011;12791;50.992;13.788;2023-04-25T01:58:24;4.10;;;3.70;;
24663;SDS011;12791;50.992;13.788;2023-04-25T02:00:51;4.18;;;3.60;;
24663;SDS011;12791;50.992;13.788;2023-04-25T02:03:17;3.90;;;3.60;;
24663;SDS011;12791;50.992;13.788;2023-04-25T02:05:44;3.60;;;3.38;;
24663;SDS011;12791;50.992;13.788;2023-04-25T02:08:11;4.00;;;3.67;;
24663;SDS011;12791;50.992;13.788;2023-04-25T02:10:38;3.85;;;3.50;;
24663;SDS011;12791;50.992;13.788;2023-04-25T02:13:05;3.90;;;3.60;;
24663;SDS011;12791;50.992;13.788;2023-04-25T02:15:32;4.22;;;3.80;;
24663;SDS011;12791;50.992;13.788;2023-04-25T02:17:59;3.92;;;3.63;;
24663;SDS011;12791;50.992;13.788;2023-04-25T02:20:26;4.03;;;3.47;;
24663;SDS011;12791;50.992;13.788;2023-04-25T02:22:53;4.75;;;3.90;;
24663;SDS011;12791;50.992;13.788;2023-04-25T02:25:20;4.40;;;4.00;;
24663;SDS011;12791;50.992;13.788;2023-04-25T02:27:47;4.95;;;3.90;;
24663;SDS011;12791;50.992;13.788;2023-04-25T02:30:15;4.50;;;4.10;;
24663;SDS011;12791;50.992;13.788;2023-04-25T02:32:42;4.60;;;4.13;;
24663;SDS011;12791;50.992;13.788;2023-04-25T02:35:08;6.10;;;4.65;;
24663;SDS011;12791;50.992;13.788;2023-04-25T02:37:36;5.25;;;4.20;;
24663;SDS011;12791;50.992;13.788;2023-04-25T02:40:04;5.60;;;4.63;;
24663;SDS011;12791;50.992;13.788;2023-04-25T02:42:32;5.47;;;4.43;;
24663;SDS011;12791;50.992;13.788;2023-04-25T02:44:59;5.00;;;4.40;;
24663;SDS011;12791;50.992;13.788;2023-04-25T02:47:27;5.82;;;4.32;;
24663;SDS011;12791;50.992;13.788;2023-04-25T02:49:54;5.85;;;4.80;;
24663;SDS011;12791;50.992;13.788;2023-04-25T02:52:20;5.78;;;5.22;;
24663;SDS011;12791;50.992;13.788;2023-04-25T02:54:47;5.38;;;4.45;;
24663;SDS011;12791;50.992;13.788;2023-04-25T02:57:14;5.97;;;4.95;;
24663;SDS011;12791;50.992;13.788;2023-04-25T02:59:40;5.20;;;4.70;;
24663;SDS011;12791;50.992;13.788;2023-04-25T03:02:07;6.95;;;4.95;;
24663;SDS011;12791;50.992;13.788;2023-04-25T03:04:35;7.68;;;4.90;;
24663;SDS011;12791;50.992;13.788;2023-04-25T03:07:01;5.20;;;4.70;;
24663;SDS011;12791;50.992;13.788;2023-04-25T03:09:28;5.85;;;5.03;;
24663;SDS011;12791;50.992;13.788;2023-04-25T03:11:55;5.93;;;4.70;;
24663;SDS011;12791;50.992;13.788;2023-04-25T03:14:21;6.05;;;5.45;;
24663;SDS011;12791;50.992;13.788;2023-04-25T03:16:48;5.55;;;4.65;;
24663;SDS011;12791;50.992;13.788;2023-04-25T03:19:14;5.78;;;5.25;;
24663;SDS011;12791;50.992;13.788;2023-04-25T03:21:43;6.25;;;4.82;;
24663;SDS011;12791;50.992;13.788;2023-04-25T03:24:10;7.10;;;5.40;;
24663;SDS011;12791;50.992;13.788;2023-04-25T03:26:37;5.05;;;4.60;;
24663;SDS011;12791;50.992;13.788;2023-04-25T03:29:04;5.57;;;4.82;;
24663;SDS011;12791;50.992;13.788;2023-04-25T03:31:30;5.90;;;4.93;;
24663;SDS011;12791;50.992;13.788;2023-04-25T03:33:57;5.30;;;4.82;;
24663;SDS011;12791;50.992;13.788;2023-04-25T03:36:24;7.00;;;4.93;;
24663;SDS011;12791;50.992;13.788;2023-04-25T03:38:51;7.60;;;5.20;;
24663;SDS011;12791;50.992;13.788;2023-04-25T03:41:18;5.10;;;4.35;;
24663;SDS011;12791;50.992;13.788;2023-04-25T03:43:45;6.45;;;5.75;;
24663;SDS011;12791;50.992;13.788;2023-04-25T03:46:11;6.53;;;4.97;;
24663;SDS011;12791;50.992;13.788;2023-04-25T03:48:38;8.10;;;5.60;;
24663;SDS011;12791;50.992;13.788;2023-04-25T03:51:04;5.50;;;5.00;;
24663;SDS011;12791;50.992;13.788;2023-04-25T03:53:31;4.63;;;4.20;;
24663;SDS011;12791;50.992;13.788;2023-04-25T03:55:59;7.47;;;4.90;;
24663;SDS011;12791;50.992;13.788;2023-04-25T03:58:25;7.25;;;5.10;;
24663;SDS011;12791;50.992;13.788;2023-04-25T04:00:52;5.10;;;4.65;;
24663;SDS011;12791;50.992;13.788;2023-04-25T04:03:19;7.22;;;5.68;;
24663;SDS011;12791;50.992;13.788;2023-04-25T04:05:46;7.22;;;5.45;;
24663;SDS011;12791;50.992;13.788;2023-04-25T04:08:12;8.63;;;5.43;;
24663;SDS011;12791;50.992;13.788;2023-04-25T04:10:39;5.63;;;4.80;;
24663;SDS011;12791;50.992;13.788;2023-04-25T04:13:07;5.80;;;5.15;;
24663;SDS011;12791;50.992;13.788;2023-04-25T04:15:33;5.85;;;4.55;;
24663;SDS011;12791;50.992;13.788;2023-04-25T04:18:00;5.80;;;5.15;;
24663;SDS011;12791;50.992;13.788;2023-04-25T04:20:28;5.03;;;4.60;;
24663;SDS011;12791;50.992;13.788;2023-04-25T04:22:55;6.10;;;5.03;;
24663;SDS011;12791;50.992;13.788;2023-04-25T04:25:21;5.65;;;5.13;;
24663;SDS011;12791;50.992;13.788;2023-04-25T04:27:49;5.85;;;4.95;;
24663;SDS011;12791;50.992;13.788;2023-04-25T04:30:18;7.63;;;5.13;;
24663;SDS011;12791;50.992;13.788;2023-04-25T04:32:45;6.00;;;4.88;;
24663;SDS011;12791;50.992;13.788;2023-04-25T04:35:11;7.68;;;5.25;;
24663;SDS011;12791;50.992;13.788;2023-04-25T04:37:38;5.93;;;4.70;;
24663;SDS011;12791;50.992;13.788;2023-04-25T04:40:05;5.47;;;4.15;;
24663;SDS011;12791;50.992;13.788;2023-04-25T04:42:33;5.18;;;4.68;;
24663;SDS011;12791;50.992;13.788;2023-04-25T04:45:01;6.18;;;4.85;;
24663;SDS011;12791;50.992;13.788;2023-04-25T04:47:29;4.93;;;4.47;;
24663;SDS011;12791;50.992;13.788;2023-04-25T04:49:56;5.70;;;4.88;;
24663;SDS011;12791;50.992;13.788;2023-04-25T04:52:22;6.85;;;5.28;;
24663;SDS011;12791;50.992;13.788;2023-04-25T04:54:49;6.20;;;4.80;;
24663;SDS011;12791;50.992;13.788;2023-04-25T04:57:15;5.15;;;4.72;;
24663;SDS011;12791;50.992;13.788;2023-04-25T04:59:42;9.75;;;5.45;;
24663;SDS011;12791;50.992;13.788;2023-04-25T05:02:09;6.00;;;4.60;;
24663;SDS011;12791;50.992;13.788;2023-04-25T05:04:37;4.75;;;4.22;;
24663;SDS011;12791;50.992;13.788;2023-04-25T05:07:03;6.15;;;4.95;;
24663;SDS011;12791;50.992;13.788;2023-04-25T05:09:30;5.78;;;5.10;;
24663;SDS011;12791;50.992;13.788;2023-04-25T05:11:57;6.57;;;4.95;;
24663;SDS011;12791;50.992;13.788;2023-04-25T05:14:23;5.50;;;4.53;;
24663;SDS011;12791;50.992;13.788;2023-04-25T05:16:50;5.72;;;4.55;;
24663;SDS011;12791;50.992;13.788;2023-04-25T05:19:16;5.90;;;4.65;;
24663;SDS011;12791;50.992;13.788;2023-04-25T05:21:44;8.05;;;5.07;;
24663;SDS011;12791;50.992;13.788;2023-04-25T05:24:11;7.82;;;5.00;;
24663;SDS011;12791;50.992;13.788;2023-04-25T05:26:37;5.10;;;4.60;;
24663;SDS011;12791;50.992;13.788;2023-04-25T05:29:04;4.85;;;4.22;;
24663;SDS011;12791;50.992;13.788;2023-04-25T05:31:31;4.75;;;4.22;;
24663;SDS011;12791;50.992;13.788;2023-04-25T05:33:57;5.75;;;3.92;;
24663;SDS011;12791;50.992;13.788;2023-04-25T05:36:24;6.53;;;3.85;;
24663;SDS011;12791;50.992;13.788;2023-04-25T05:38:53;4.20;;;3.80;;
24663;SDS011;12791;50.992;13.788;2023-04-25T05:41:20;5.85;;;3.70;;
24663;SDS011;12791;50.992;13.788;2023-04-25T05:43:46;3.85;;;3.33;;
24663;SDS011;12791;50.992;13.788;2023-04-25T05:46:14;4.50;;;3.60;;
24663;SDS011;12791;50.992;13.788;2023-04-25T05:48:42;7.53;;;4.43;;
24663;SDS011;12791;50.992;13.788;2023-04-25T05:51:09;5.88;;;4.50;;
24663;SDS011;12791;50.992;13.788;2023-04-25T05:53:35;7.45;;;5.18;;
24663;SDS011;12791;50.992;13.788;2023-04-25T05:56:03;5.32;;;3.95;;
24663;SDS011;12791;50.992;13.788;2023-04-25T05:58:30;7.30;;;4.75;;
24663;SDS011;12791;50.992;13.788;2023-04-25T06:00:57;6.78;;;4.15;;
24663;SDS011;12791;50.992;13.788;2023-04-25T06:03:24;5.78;;;4.40;;
24663;SDS011;12791;50.992;13.788;2023-04-25T06:05:51;4.90;;;4.00;;
24663;SDS011;12791;50.992;13.788;2023-04-25T06:08:17;8.05;;;4.72;;
24663;SDS011;12791;50.992;13.788;2023-04-25T06:10:44;6.03;;;4.72;;
24663;SDS011;12791;50.992;13.788;2023-04-25T06:13:12;6.75;;;4.78;;
24663;SDS011;12791;50.992;13.788;2023-04-25T06:15:38;6.50;;;4.30;;
24663;SDS011;12791;50.992;13.788;2023-04-25T06:18:05;9.50;;;5.30;;
24663;SDS011;12791;50.992;13.788;2023-04-25T06:20:31;7.05;;;4.93;;
24663;SDS011;12791;50.992;13.788;2023-04-25T06:22:58;6.55;;;4.88;;
24663;SDS011;12791;50.992;13.788;2023-04-25T06:25:24;8.85;;;5.15;;
24663;SDS011;12791;50.992;13.788;2023-04-25T06:27:51;6.07;;;4.88;;
24663;SDS011;12791;50.992;13.788;2023-04-25T06:30:19;6.40;;;4.78;;
24663;SDS011;12791;50.992;13.788;2023-04-25T06:32:48;10.27;;;5.30;;
24663;SDS011;12791;50.992;13.788;2023-04-25T06:35:15;6.22;;;5.22;;
24663;SDS011;12791;50.992;13.788;2023-04-25T06:37:41;5.88;;;5.28;;
24663;SDS011;12791;50.992;13.788;2023-04-25T06:40:08;7.07;;;5.30;;
24663;SDS011;12791;50.992;13.788;2023-04-25T06:42:35;7.15;;;5.40;;
24663;SDS011;12791;50.992;13.788;2023-04-25T06:45:02;7.35;;;5.88;;
24663;SDS011;12791;50.992;13.788;2023-04-25T06:47:30;6.72;;;6.00;;
24663;SDS011;12791;50.992;13.788;2023-04-25T06:49:57;8.70;;;6.25;;
24663;SDS011;12791;50.992;13.788;2023-04-25T06:52:24;9.90;;;5.85;;
24663;SDS011;12791;50.992;13.788;2023-04-25T06:54:50;7.05;;;5.70;;
24663;SDS011;12791;50.992;13.788;2023-04-25T06:57:17;8.75;;;5.70;;
24663;SDS011;12791;50.992;13.788;2023-04-25T06:59:43;9.30;;;6.25;;
24663;SDS011;12791;50.992;13.788;2023-04-25T07:02:10;8.07;;;5.68;;
24663;SDS011;12791;50.992;13.788;2023-04-25T07:04:38;6.55;;;5.65;;
24663;SDS011;12791;50.992;13.788;2023-04-25T07:07:05;6.90;;;4.78;;
24663;SDS011;12791;50.992;13.788;2023-04-25T07:09:32;8.85;;;6.75;;
24663;SDS011;12791;50.992;13.788;2023-04-25T07:11:58;8.60;;;6.28;;
24663;SDS011;12791;50.992;13.788;2023-04-25T07:14:26;8.30;;;6.30;;
24663;SDS011;12791;50.992;13.788;2023-04-25T07:16:52;11.45;;;7.38;;
24663;SDS011;12791;50.992;13.788;2023-04-25T07:19:20;8.30;;;6.47;;
24663;SDS011;12791;50.992;13.788;2023-04-25T07:21:50;8.60;;;6.78;;
24663;SDS011;12791;50.992;13.788;2023-04-25T07:24:16;7.63;;;6.72;;
24663;SDS011;12791;50.992;13.788;2023-04-25T07:26:43;7.32;;;5.78;;
24663;SDS011;12791;50.992;13.788;2023-04-25T07:29:09;9.10;;;6.32;;
24663;SDS011;12791;50.992;13.788;2023-04-25T07:31:36;8.13;;;6.03;;
24663;SDS011;12791;50.992;13.788;2023-04-25T07:34:03;7.35;;;6.30;;
24663;SDS011;12791;50.992;13.788;2023-04-25T07:36:30;6.10;;;4.82;;
24663;SDS011;12791;50.992;13.788;2023-04-25T07:38:58;5.97;;;4.15;;
24663;SDS011;12791;50.992;13.788;2023-04-25T07:41:25;8.15;;;4.68;;
24663;SDS011;12791;50.992;13.788;2023-04-25T07:43:51;5.47;;;4.15;;
24663;SDS011;12791;50.992;13.788;2023-04-25T07:46:18;6.00;;;4.50;;
24663;SDS011;12791;50.992;13.788;2023-04-25T07:48:44;4.45;;;3.88;;
24663;SDS011;12791;50.992;13.788;2023-04-25T07:51:11;6.30;;;4.00;;
24663;SDS011;12791;50.992;13.788;2023-04-25T07:53:37;4.10;;;3.22;;
24663;SDS011;12791;50.992;13.788;2023-04-25T07:56:07;4.93;;;3.58;;
24663;SDS011;12791;50.992;13.788;2023-04-25T07:58:34;6.05;;;3.45;;
24663;SDS011;12791;50.992;13.788;2023-04-25T08:01:00;6.53;;;3.47;;
24663;SDS011;12791;50.992;13.788;2023-04-25T08:03:27;7.93;;;3.97;;
24663;SDS011;12791;50.992;13.788;2023-04-25T08:05:53;6.72;;;3.70;;
24663;SDS011;12791;50.992;13.788;2023-04-25T08:08:20;3.58;;;2.60;;
24663;SDS011;12791;50.992;13.788;2023-04-25T08:10:47;4.53;;;2.28;;
24663;SDS011;12791;50.992;13.788;2023-04-25T08:13:15;5.05;;;2.90;;
24663;SDS011;12791;50.992;13.788;2023-04-25T08:15:41;4.35;;;2.03;;
24663;SDS011;12791;50.992;13.788;2023-04-25T08:18:08;4.50;;;2.50;;
24663;SDS011;12791;50.992;13.788;2023-04-25T08:20:35;4.45;;;2.20;;
24663;SDS011;12791;50.992;13.788;2023-04-25T08:23:01;4.00;;;2.92;;
24663;SDS011;12791;50.992;13.788;2023-04-25T08:25:28;4.43;;;2.55;;
24663;SDS011;12791;50.992;13.788;2023-04-25T08:27:54;3.78;;;2.67;;
24663;SDS011;12791;50.992;13.788;2023-04-25T08:30:23;5.03;;;2.78;;
24663;SDS011;12791;50.992;13.788;2023-04-25T08:32:49;4.15;;;2.58;;
24663;SDS011;12791;50.992;13.788;2023-04-25T08:35:16;3.95;;;2.10;;
24663;SDS011;12791;50.992;13.788;2023-04-25T08:37:43;4.18;;;2.25;;
24663;SDS011;12791;50.992;13.788;2023-04-25T08:40:11;3.03;;;2.50;;
24663;SDS011;12791;50.992;13.788;2023-04-25T08:42:39;2.47;;;2.28;;
24663;SDS011;12791;50.992;13.788;2023-04-25T08:45:07;3.50;;;2.55;;
24663;SDS011;12791;50.992;13.788;2023-04-25T08:47:37;2.97;;;2.15;;
24663;SDS011;12791;50.992;13.788;2023-04-25T08:50:04;4.43;;;2.83;;
24663;SDS011;12791;50.992;13.788;2023-04-25T08:52:34;4.45;;;3.00;;
24663;SDS011;12791;50.992;13.788;2023-04-25T08:55:03;3.40;;;2.55;;
24663;SDS011;12791;50.992;13.788;2023-04-25T08:57:33;4.05;;;2.95;;
24663;SDS011;12791;50.992;13.788;2023-04-25T09:00:01;3.78;;;2.80;;
24663;SDS011;12791;50.992;13.788;2023-04-25T09:02:29;3.58;;;2.83;;
24663;SDS011;12791;50.992;13.788;2023-04-25T09:04:57;5.82;;;3.13;;
24663;SDS011;12791;50.992;13.788;2023-04-25T09:07:24;5.82;;;2.97;;
24663;SDS011;12791;50.992;13.788;2023-04-25T09:09:51;4.38;;;2.95;;
24663;SDS011;12791;50.992;13.788;2023-04-25T09:12:18;4.15;;;3.03;;
24663;SDS011;12791;50.992;13.788;2023-04-25T09:14:53;3.97;;;2.63;;
24663;SDS011;12791;50.992;13.788;2023-04-25T09:17:27;4.35;;;3.00;;
24663;SDS011;12791;50.992;13.788;2023-04-25T09:19:54;4.70;;;3.47;;
24663;SDS011;12791;50.992;13.788;2023-04-25T09:22:22;7.80;;;4.13;;
24663;SDS011;12791;50.992;13.788;2023-04-25T09:24:49;9.05;;;5.35;;
24663;SDS011;12791;50.992;13.788;2023-04-25T09:27:18;5.07;;;4.57;;
24663;SDS011;12791;50.992;13.788;2023-04-25T09:29:45;5.57;;;3.85;;
24663;SDS011;12791;50.992;13.788;2023-04-25T09:32:14;6.07;;;4.78;;
24663;SDS011;12791;50.992;13.788;2023-04-25T09:34:43;6.38;;;4.75;;
24663;SDS011;12791;50.992;13.788;2023-04-25T09:37:16;4.55;;;4.00;;
24663;SDS011;12791;50.992;13.788;2023-04-25T09:39:45;4.88;;;4.22;;
24663;SDS011;12791;50.992;13.788;2023-04-25T09:42:13;9.55;;;4.45;;
24663;SDS011;12791;50.992;13.788;2023-04-25T09:44:41;10.38;;;4.50;;
24663;SDS011;12791;50.992;13.788;2023-04-25T09:47:09;4.15;;;3.58;;
24663;SDS011;12791;50.992;13.788;2023-04-25T09:49:38;5.22;;;4.38;;
24663;SDS011;12791;50.992;13.788;2023-04-25T09:52:06;7.15;;;5.45;;
24663;SDS011;12791;50.992;13.788;2023-04-25T09:54:33;5.35;;;4.72;;
24663;SDS011;12791;50.992;13.788;2023-04-25T09:57:03;6.72;;;5.28;;
24663;SDS011;12791;50.992;13.788;2023-04-25T09:59:36;6.40;;;5.50;;
24663;SDS011;12791;50.992;13.788;2023-04-25T10:02:05;5.38;;;4.55;;
24663;SDS011;12791;50.992;13.788;2023-04-25T10:04:34;5.30;;;4.80;;
24663;SDS011;12791;50.992;13.788;2023-04-25T10:07:01;4.75;;;4.28;;
24663;SDS011;12791;50.992;13.788;2023-04-25T10:09:29;4.68;;;4.15;;
24663;SDS011;12791;50.992;13.788;2023-04-25T10:11:59;4.72;;;4.28;;
24663;SDS011;12791;50.992;13.788;2023-04-25T10:14:27;4.35;;;4.05;;
24663;SDS011;12791;50.992;13.788;2023-04-25T10:16:55;6.43;;;4.60;;
24663;SDS011;12791;50.992;13.788;2023-04-25T10:19:23;5.97;;;5.28;;
24663;SDS011;12791;50.992;13.788;2023-04-25T10:21:52;7.03;;;5.60;;
24663;SDS011;12791;50.992;13.788;2023-04-25T10:24:38;7.65;;;6.35;;
24663;SDS011;12791;50.992;13.788;2023-04-25T10:27:05;6.75;;;6.05;;
24663;SDS011;12791;50.992;13.788;2023-04-25T10:29:34;5.85;;;5.25;;
24663;SDS011;12791;50.992;13.788;2023-04-25T10:32:01;7.35;;;5.18;;
24663;SDS011;12791;50.992;13.788;2023-04-25T10:34:38;5.20;;;4.07;;
24663;SDS011;12791;50.992;13.788;2023-04-25T10:37:08;4.30;;;3.55;;
24663;SDS011;12791;50.992;13.788;2023-04-25T10:39:35;4.07;;;2.85;;
24663;SDS011;12791;50.992;13.788;2023-04-25T10:42:03;3.42;;;3.15;;
24663;SDS011;12791;50.992;13.788;2023-04-25T10:44:31;5.63;;;3.90;;
24663;SDS011;12791;50.992;13.788;2023-04-25T10:46:59;5.95;;;4.30;;
24663;SDS011;12791;50.992;13.788;2023-04-25T10:49:28;6.97;;;4.78;;
24663;SDS011;12791;50.992;13.788;2023-04-25T10:52:13;6.60;;;4.32;;
24663;SDS011;12791;50.992;13.788;2023-04-25T10:54:41;5.63;;;4.20;;
24663;SDS011;12791;50.992;13.788;2023-04-25T11:00:00;4.47;;;3.92;;
24663;SDS011;12791;50.992;13.788;2023-04-25T11:02:33;5.35;;;4.80;;
24663;SDS011;12791;50.992;13.788;2023-04-25T11:05:03;8.23;;;5.38;;
24663;SDS011;12791;50.992;13.788;2023-04-25T11:07:33;7.53;;;4.80;;
24663;SDS011;12791;50.992;13.788;2023-04-25T11:10:03;6.72;;;6.13;;
24663;SDS011;12791;50.992;13.788;2023-04-25T11:12:31;8.93;;;5.72;;
24663;SDS011;12791;50.992;13.788;2023-04-25T11:14:58;6.32;;;5.63;;
24663;SDS011;12791;50.992;13.788;2023-04-25T11:17:26;10.15;;;7.75;;
24663;SDS011;12791;50.992;13.788;2023-04-25T11:19:55;10.32;;;7.43;;
24663;SDS011;12791;50.992;13.788;2023-04-25T11:22:22;12.43;;;7.82;;
24663;SDS011;12791;50.992;13.788;2023-04-25T11:24:49;13.40;;;7.57;;
24663;SDS011;12791;50.992;13.788;2023-04-25T11:27:15;9.10;;;7.07;;
24663;SDS011;12791;50.992;13.788;2023-04-25T11:29:42;13.52;;;7.47;;
24663;SDS011;12791;50.992;13.788;2023-04-25T11:32:08;8.70;;;7.18;;
24663;SDS011;12791;50.992;13.788;2023-04-25T11:34:35;8.10;;;6.30;;
24663;SDS011;12791;50.992;13.788;2023-04-25T11:37:03;8.50;;;5.70;;
24663;SDS011;12791;50.992;13.788;2023-04-25T11:39:30;9.27;;;4.50;;
24663;SDS011;12791;50.992;13.788;2023-04-25T11:41:57;5.72;;;3.17;;
24663;SDS011;12791;50.992;13.788;2023-04-25T11:44:24;4.70;;;2.55;;
24663;SDS011;12791;50.992;13.788;2023-04-25T11:46:51;8.40;;;2.60;;
24663;SDS011;12791;50.992;13.788;2023-04-25T11:49:17;2.72;;;2.15;;
24663;SDS011;12791;50.992;13.788;2023-04-25T11:51:45;4.80;;;2.10;;
24663;SDS011;12791;50.992;13.788;2023-04-25T11:54:14;4.63;;;2.08;;
24663;SDS011;12791;50.992;13.788;2023-04-25T11:56:41;3.70;;;2.28;;
24663;SDS011;12791;50.992;13.788;2023-04-25T11:59:09;3.65;;;1.98;;
24663;SDS011;12791;50.992;13.788;2023-04-25T12:01:38;3.78;;;2.47;;
24663;SDS011;12791;50.992;13.788;2023-04-25T12:04:12;2.35;;;1.67;;
24663;SDS011;12791;50.992;13.788;2023-04-25T12:06:40;4.75;;;2.33;;
24663;SDS011;12791;50.992;13.788;2023-04-25T12:09:07;4.65;;;2.42;;
24663;SDS011;12791;50.992;13.788;2023-04-25T12:11:41;3.72;;;2.42;;
24663;SDS011;12791;50.992;13.788;2023-04-25T12:16:42;5.22;;;2.10;;
24663;SDS011;12791;50.992;13.788;2023-04-25T12:19:13;5.28;;;2.80;;
24663;SDS011;12791;50.992;13.788;2023-04-25T12:21:40;6.28;;;2.72;;
24663;SDS011;12791;50.992;13.788;2023-04-25T12:24:10;5.63;;;2.78;;
24663;SDS011;12791;50.992;13.788;2023-04-25T12:26:47;7.55;;;2.88;;
24663;SDS011;12791;50.992;13.788;2023-04-25T12:29:15;7.00;;;2.75;;
24663;SDS011;12791;50.992;13.788;2023-04-25T12:31:43;7.25;;;2.00;;
24663;SDS011;12791;50.992;13.788;2023-04-25T12:34:09;6.63;;;2.72;;
24663;SDS011;12791;50.992;13.788;2023-04-25T12:36:36;6.07;;;2.35;;
24663;SDS011;12791;50.992;13.788;2023-04-25T12:39:03;8.10;;;2.33;;
24663;SDS011;12791;50.992;13.788;2023-04-25T12:41:29;3.33;;;1.88;;
24663;SDS011;12791;50.992;13.788;2023-04-25T12:43:58;5.30;;;2.40;;
24663;SDS011;12791;50.992;13.788;2023-04-25T12:46:24;7.40;;;2.92;;
24663;SDS011;12791;50.992;13.788;2023-04-25T12:48:51;8.82;;;2.88;;
24663;SDS011;12791;50.992;13.788;2023-04-25T12:51:18;9.77;;;3.28;;
24663;SDS011;12791;50.992;13.788;2023-04-25T12:53:44;7.88;;;2.88;;
24663;SDS011;12791;50.992;13.788;2023-04-25T12:56:11;8.13;;;2.75;;
24663;SDS011;12791;50.992;13.788;2023-04-25T12:58:37;8.65;;;2.78;;
24663;SDS011;12791;50.992;13.788;2023-04-25T13:01:06;10.43;;;3.55;;
24663;SDS011;12791;50.992;13.788;2023-04-25T13:03:33;5.82;;;2.33;;
24663;SDS011;12791;50.992;13.788;2023-04-25T13:05:59;8.60;;;2.80;;
24663;SDS011;12791;50.992;13.788;2023-04-25T13:08:26;5.03;;;2.50;;
24663;SDS011;12791;50.992;13.788;2023-04-25T13:10:53;8.73;;;3.10;;
24663;SDS011;12791;50.992;13.788;2023-04-25T13:13:19;6.13;;;3.38;;
24663;SDS011;12791;50.992;13.788;2023-04-25T13:15:46;9.18;;;3.90;;
24663;SDS011;12791;50.992;13.788;2023-04-25T13:18:14;9.00;;;3.63;;
24663;SDS011;12791;50.992;13.788;2023-04-25T13:20:41;9.02;;;4.68;;
24663;SDS011;12791;50.992;13.788;2023-04-25T13:23:08;7.95;;;3.42;;
24663;SDS011;12791;50.992;13.788;2023-04-25T13:25:34;10.15;;;4.20;;
24663;SDS011;12791;50.992;13.788;2023-04-25T13:28:01;11.25;;;4.07;;
24663;SDS011;12791;50.992;13.788;2023-04-25T13:30:28;13.90;;;4.70;;
24663;SDS011;12791;50.992;13.788;2023-04-25T13:32:54;14.45;;;4.63;;
24663;SDS011;12791;50.992;13.788;2023-04-25T13:35:23;8.40;;;4.43;;
24663;SDS011;12791;50.992;13.788;2023-04-25T13:37:50;7.75;;;4.18;;
24663;SDS011;12791;50.992;13.788;2023-04-25T13:40:17;9.65;;;4.72;;
24663;SDS011;12791;50.992;13.788;2023-04-25T13:42:43;17.48;;;5.20;;
24663;SDS011;12791;50.992;13.788;2023-04-25T13:45:10;10.75;;;4.82;;
24663;SDS011;12791;50.992;13.788;2023-04-25T13:47:37;14.05;;;4.88;;
24663;SDS011;12791;50.992;13.788;2023-04-25T13:50:04;11.77;;;3.85;;
24663;SDS011;12791;50.992;13.788;2023-04-25T13:52:33;9.43;;;3.78;;
24663;SDS011;12791;50.992;13.788;2023-04-25T13:55:00;7.35;;;3.50;;
24663;SDS011;12791;50.992;13.788;2023-04-25T13:57:28;8.63;;;3.50;;
24663;SDS011;12791;50.992;13.788;2023-04-25T13:59:56;10.00;;;3.80;;
24663;SDS011;12791;50.992;13.788;2023-04-25T14:02:22;14.35;;;3.97;;
24663;SDS011;12791;50.992;13.788;2023-04-25T14:04:49;10.30;;;3.67;;
24663;SDS011;12791;50.992;13.788;2023-04-25T14:07:15;11.57;;;3.88;;
24663;SDS011;12791;50.992;13.788;2023-04-25T14:09:44;14.43;;;4.47;;
24663;SDS011;12791;50.992;13.788;2023-04-25T14:12:10;9.60;;;3.85;;
24663;SDS011;12791;50.992;13.788;2023-04-25T14:14:37;12.82;;;4.13;;
24663;SDS011;12791;50.992;13.788;2023-04-25T14:17:04;8.93;;;3.55;;
24663;SDS011;12791;50.992;13.788;2023-04-25T14:19:31;6.60;;;3.38;;
24663;SDS011;12791;50.992;13.788;2023-04-25T14:21:58;6.25;;;3.05;;
24663;SDS011;12791;50.992;13.788;2023-04-25T14:24:24;9.15;;;3.78;;
24663;SDS011;12791;50.992;13.788;2023-04-25T14:26:52;12.20;;;4.00;;
24663;SDS011;12791;50.992;13.788;2023-04-25T14:29:19;6.90;;;4.05;;
24663;SDS011;12791;50.992;13.788;2023-04-25T14:31:46;6.65;;;3.25;;
24663;SDS011;12791;50.992;13.788;2023-04-25T14:34:13;12.70;;;3.90;;
24663;SDS011;12791;50.992;13.788;2023-04-25T14:36:40;6.57;;;2.63;;
24663;SDS011;12791;50.992;13.788;2023-04-25T14:39:06;11.20;;;4.50;;